Time;durP1;ratioP1;P1;durP2;ratioP2;P2;SDS_P1;SDS_P2;PMS_P1;PMS_P2;Temp;Humidity;BMP_temperature;BMP_pressure;BME280_temperature;BME280_humidity;BME280_pressure;Samples;Min_cycle;Max_cycle;Signal;HPM_P1;HPM_P2
2020/12/01 00:00:54;;;;;;;39.73;17.87;;;;;;;-2.19;90.15;99381.47;5134975;27;20054;-80
2020/12/01 00:03:21;;;;;;;44.80;18.87;;;;;;;-2.15;89.83;99371.47;5134290;27;20066;-80
2020/12/01 00:05:47;;;;;;;38.27;17.40;;;;;;;-2.01;89.63;99351.94;5142802;27;20456;-80
2020/12/01 00:08:13;;;;;;;42.77;18.57;;;;;;;-1.94;89.35;99344.38;5154996;27;20043;-80
2020/12/01 00:10:40;;;;;;;50.80;20.20;;;;;;;-1.96;89.21;99329.34;5137693;27;20058;-80
2020/12/01 00:13:07;;;;;;;44.77;18.97;;;;;;;-2.03;90.00;99312.06;5150854;27;20414;-80
2020/12/01 00:15:33;;;;;;;38.33;18.67;;;;;;;-2.20;90.33;99302.53;5141239;27;20050;-80
2020/12/01 00:18:01;;;;;;;40.53;18.63;;;;;;;-2.10;90.62;99313.41;5146106;27;20510;-80
2020/12/01 00:20:27;;;;;;;42.37;16.97;;;;;;;-2.06;90.24;99306.06;5153251;27;20054;-80
2020/12/01 00:22:54;;;;;;;43.13;17.77;;;;;;;-2.20;91.06;99288.34;5148980;27;20047;-80
2020/12/01 00:25:22;;;;;;;40.27;17.43;;;;;;;-2.25;90.66;99275.31;5140925;27;20058;-80
2020/12/01 00:27:48;;;;;;;47.03;18.53;;;;;;;-2.14;90.55;99266.63;5133670;27;20499;-80
2020/12/01 00:30:17;;;;;;;51.27;19.20;;;;;;;-2.10;90.49;99262.81;5143682;27;20053;-80
2020/12/01 00:32:44;;;;;;;40.85;18.20;;;;;;;-2.03;90.94;99284.53;5143636;27;20051;-80
2020/12/01 00:35:15;;;;;;;54.93;20.73;;;;;;;-2.13;90.87;99245.19;5144441;27;20095;-81
2020/12/01 00:37:43;;;;;;;45.43;18.47;;;;;;;-1.99;91.09;99264.75;5153942;27;20051;-80
2020/12/01 00:40:10;;;;;;;39.07;16.00;;;;;;;-1.97;91.38;99254.84;5152084;27;20051;-80
2020/12/01 00:42:36;;;;;;;49.50;20.20;;;;;;;-1.92;91.14;99258.06;5154391;27;20050;-80
2020/12/01 00:45:06;;;;;;;42.17;17.63;;;;;;;-1.98;91.04;99243.31;5144925;27;20046;-80
2020/12/01 00:47:32;;;;;;;43.47;17.85;;;;;;;-1.96;91.33;99237.88;5133606;27;20047;-80
2020/12/01 00:49:58;;;;;;;36.80;16.00;;;;;;;-1.82;91.31;99251.16;5146346;27;20047;-81
2020/12/01 00:52:26;;;;;;;43.37;17.03;;;;;;;-1.82;90.99;99232.50;5151864;27;20058;-81
2020/12/01 00:54:52;;;;;;;40.40;17.57;;;;;;;-1.84;91.09;99222.88;5144676;27;20086;-81
2020/12/01 00:57:19;;;;;;;42.07;18.53;;;;;;;-1.79;91.39;99226.09;5144860;27;20046;-81
2020/12/01 00:59:45;;;;;;;53.53;20.23;;;;;;;-1.77;91.22;99210.84;5153207;27;20057;-81
2020/12/01 01:02:11;;;;;;;42.63;16.93;;;;;;;-1.76;91.23;99206.38;5144324;27;20453;-81
2020/12/01 01:04:38;;;;;;;37.03;15.70;;;;;;;-1.74;90.93;99197.31;5133548;27;20047;-81
2020/12/01 01:07:04;;;;;;;39.13;17.07;;;;;;;-1.64;90.33;99202.84;5145881;27;20095;-81
2020/12/01 01:09:31;;;;;;;43.33;19.67;;;;;;;-1.64;90.68;99194.84;5138900;27;20050;-81
2020/12/01 01:11:57;;;;;;;41.63;17.37;;;;;;;-1.79;90.89;99173.66;5151959;27;20043;-81
2020/12/01 01:14:24;;;;;;;48.43;19.13;;;;;;;-1.70;90.92;99192.59;5145386;27;20050;-81
2020/12/01 01:16:50;;;;;;;48.27;18.50;;;;;;;-1.61;91.19;99187.50;5150884;27;20539;-80
2020/12/01 01:19:16;;;;;;;37.33;16.70;;;;;;;-1.70;90.76;99179.28;5135269;27;20051;-80
2020/12/01 01:21:45;;;;;;;34.10;14.07;;;;;;;-1.70;91.50;99158.84;5153682;27;20039;-80
2020/12/01 01:24:14;;;;;;;43.87;19.70;;;;;;;-1.42;91.14;99178.22;5136756;27;20047;-80
2020/12/01 01:26:45;;;;;;;50.67;19.00;;;;;;;-1.49;90.74;99163.59;5133115;27;20051;-81
2020/12/01 01:29:12;;;;;;;45.53;19.03;;;;;;;-1.40;90.56;99180.75;5134169;27;20564;-81
2020/12/01 01:31:38;;;;;;;38.17;17.10;;;;;;;-1.51;91.11;99185.03;5132772;27;20486;-81
2020/12/01 01:34:04;;;;;;;46.30;19.03;;;;;;;-1.57;90.80;99188.13;5139841;27;20413;-80
2020/12/01 01:36:33;;;;;;;44.60;19.47;;;;;;;-1.44;91.21;99210.31;5114505;27;20126;-81
2020/12/01 01:38:59;;;;;;;44.03;18.87;;;;;;;-1.42;90.78;99202.22;5133294;27;20054;-80
2020/12/01 01:41:29;;;;;;;42.10;16.47;;;;;;;-1.46;91.41;99192.72;5133425;27;20100;-81
2020/12/01 01:43:56;;;;;;;41.58;17.67;;;;;;;-1.44;91.38;99193.47;5133140;27;20525;-81
2020/12/01 01:46:38;;;;;;;38.23;17.40;;;;;;;-1.31;91.42;99198.78;5136540;27;20034;-81
2020/12/01 01:49:07;;;;;;;40.47;17.13;;;;;;;-1.35;91.88;99197.31;5140443;27;20122;-81
2020/12/01 01:51:37;;;;;;;41.47;16.77;;;;;;;-1.52;91.95;99159.34;5134463;27;20050;-81
2020/12/01 01:54:04;;;;;;;48.97;19.20;;;;;;;-1.39;92.49;99166.47;5132781;27;20039;-81
2020/12/01 01:56:36;;;;;;;44.43;18.00;;;;;;;-1.23;91.75;99166.22;5133694;27;20495;-81
2020/12/01 01:59:05;;;;;;;44.03;18.10;;;;;;;-1.23;92.03;99159.09;5138112;27;20051;-81
2020/12/01 02:01:31;;;;;;;38.67;18.00;;;;;;;-1.07;91.19;99154.34;5132805;27;20384;-81
2020/12/01 02:04:01;;;;;;;39.57;18.00;;;;;;;-1.15;91.14;99134.53;5134187;27;20120;-81
2020/12/01 02:06:29;;;;;;;;;;;;;;;-1.12;91.36;99143.16;5132599;27;20099;-81
2020/12/01 02:08:58;;;;;;;40.33;16.80;;;;;;;-1.18;91.39;99142.75;5114344;27;19919;-81
2020/12/01 02:11:26;;;;;;;44.67;18.13;;;;;;;-1.23;91.25;99124.41;5133379;27;20047;-81
2020/12/01 02:14:01;;;;;;;43.53;17.27;;;;;;;-1.22;91.26;99099.41;5142981;27;20039;-82
2020/12/01 02:16:28;;;;;;;42.73;19.47;;;;;;;-1.05;91.09;99124.00;5113785;27;20047;-82
2020/12/01 02:18:54;;;;;;;44.43;17.93;;;;;;;-1.23;91.07;99107.53;5134863;27;20502;-82
2020/12/01 02:21:28;;;;;;;41.53;17.30;;;;;;;-1.41;91.68;99073.25;5147331;27;20169;-82
2020/12/01 02:23:55;;;;;;;41.57;16.90;;;;;;;-1.26;91.72;99092.63;5148139;27;20451;-81
2020/12/01 02:26:22;;;;;;;41.80;16.53;;;;;;;-1.31;92.04;99079.63;5137404;27;20047;-82
2020/12/01 02:28:49;;;;;;;43.83;17.70;;;;;;;-1.19;92.09;99074.34;5151958;27;20053;-82
2020/12/01 02:31:15;;;;;;;45.67;18.57;;;;;;;-1.08;91.80;99075.25;5155312;27;20054;-81
2020/12/01 02:33:41;;;;;;;47.30;17.60;;;;;;;-1.12;91.52;99060.44;5155676;27;20092;-81
2020/12/01 02:36:08;;;;;;;37.67;17.67;;;;;;;-1.18;91.37;99050.22;5147303;27;20495;-80
2020/12/01 02:38:34;;;;;;;50.73;19.90;;;;;;;-0.97;91.75;99055.78;5137021;27;20129;-80
2020/12/01 02:41:00;;;;;;;39.27;17.23;;;;;;;-1.05;92.28;99057.31;5156112;27;20047;-81
2020/12/01 02:43:28;;;;;;;51.83;17.60;;;;;;;-1.04;92.61;99048.34;5154434;27;20042;-81
2020/12/01 02:45:54;;;;;;;46.77;16.80;;;;;;;-1.05;92.65;99039.50;5143919;27;20059;-82
2020/12/01 02:48:20;;;;;;;43.07;18.07;;;;;;;-1.04;92.73;99027.00;5137168;27;20100;-82
2020/12/01 02:50:47;;;;;;;48.70;18.40;;;;;;;-1.02;92.39;99009.91;5140406;27;20050;-82
2020/12/01 02:53:13;;;;;;;55.00;19.57;;;;;;;-0.85;91.80;99024.66;5150256;27;20089;-82
2020/12/01 02:55:39;;;;;;;54.50;19.43;;;;;;;-0.97;91.93;98999.75;5136668;27;20043;-82
2020/12/01 02:58:06;;;;;;;55.47;20.03;;;;;;;-0.95;92.23;99000.50;5139717;27;20062;-82
2020/12/01 03:00:33;;;;;;;53.97;19.50;;;;;;;-1.04;91.95;98977.16;5136835;27;20047;-83
2020/12/01 03:03:00;;;;;;;55.53;19.50;;;;;;;-1.05;92.67;98978.13;5149827;27;20100;-84
2020/12/01 03:05:26;;;;;;;40.57;17.77;;;;;;;-1.19;92.93;98963.16;5137202;27;20407;-83
2020/12/01 03:07:52;;;;;;;52.83;19.73;;;;;;;-1.06;92.61;98955.06;5135827;27;20436;-84
2020/12/01 03:10:19;;;;;;;45.57;17.17;;;;;;;-0.92;92.28;98978.03;5135863;27;20498;-84
2020/12/01 03:12:45;;;;;;;49.27;17.60;;;;;;;-1.01;92.21;98963.59;5136721;27;20048;-84
2020/12/01 03:15:13;;;;;;;43.70;16.03;;;;;;;-0.92;93.12;98980.72;5135740;27;20039;-84
2020/12/01 03:17:41;;;;;;;48.90;17.40;;;;;;;-0.93;92.62;98969.19;5142741;27;20095;-84
2020/12/01 03:20:08;;;;;;;45.53;17.10;;;;;;;-0.89;92.76;98961.78;5151191;27;20091;-84
2020/12/01 03:22:34;;;;;;;46.87;19.70;;;;;;;-0.87;92.75;98953.66;5141600;27;20058;-83
2020/12/01 03:25:00;;;;;;;46.17;18.20;;;;;;;-0.76;92.18;98972.41;5143638;27;20043;-84
2020/12/01 03:27:27;;;;;;;46.23;16.17;;;;;;;-0.93;92.78;98952.34;5149492;27;20038;-83
2020/12/01 03:29:53;;;;;;;36.07;15.33;;;;;;;-1.04;92.72;98929.13;5156118;27;20054;-83
2020/12/01 03:32:21;;;;;;;42.00;16.17;;;;;;;-0.85;92.40;98970.44;5143691;27;20510;-83
2020/12/01 03:34:49;;;;;;;50.23;18.93;;;;;;;-0.74;92.15;98957.97;5117627;27;20082;-83
2020/12/01 03:37:15;;;;;;;47.77;16.57;;;;;;;-0.78;92.25;98936.97;5135441;27;20039;-83
2020/12/01 03:39:41;;;;;;;40.83;15.40;;;;;;;-0.76;92.63;98943.03;5136646;27;20449;-82
2020/12/01 03:42:08;;;;;;;41.60;16.40;;;;;;;-0.67;91.97;98942.31;5154526;27;20043;-81
2020/12/01 03:44:34;;;;;;;44.60;17.67;;;;;;;-0.62;91.98;98958.81;5136515;27;20422;-82
2020/12/01 03:47:00;;;;;;;43.93;18.13;;;;;;;-0.61;91.70;98932.97;5136891;27;20455;-82
2020/12/01 03:49:27;;;;;;;46.47;18.53;;;;;;;-0.64;91.56;98926.06;5152101;27;20117;-82
2020/12/01 03:51:54;;;;;;;43.50;18.10;;;;;;;-0.65;91.81;98904.81;5153020;27;20103;-81
2020/12/01 03:54:20;;;;;;;38.43;15.47;;;;;;;-0.61;91.83;98941.00;5144206;27;20039;-82
2020/12/01 03:56:46;;;;;;;38.53;16.33;;;;;;;-0.66;91.95;98919.13;5134693;27;20054;-81
2020/12/01 03:59:13;;;;;;;36.83;16.47;;;;;;;-0.63;91.88;98921.56;5148832;27;20046;-82
2020/12/01 04:01:39;;;;;;;41.50;16.43;;;;;;;-0.60;92.19;98919.50;5152262;27;20053;-80
2020/12/01 04:04:05;;;;;;;35.67;15.53;;;;;;;-0.69;91.67;98904.22;5154515;27;20047;-81
2020/12/01 04:06:31;;;;;;;39.37;15.10;;;;;;;-0.80;91.60;98907.72;5152392;27;20395;-81
2020/12/01 04:08:59;;;;;;;33.40;14.97;;;;;;;-0.78;91.96;98899.59;5155050;27;20057;-81
2020/12/01 04:11:25;;;;;;;42.10;14.47;;;;;;;-0.62;92.34;98913.41;5145196;27;20051;-81
2020/12/01 04:13:52;;;;;;;35.57;14.30;;;;;;;-0.62;92.12;98924.09;5134061;27;20388;-81
2020/12/01 04:16:19;;;;;;;43.50;16.53;;;;;;;-0.67;92.04;98915.63;5138035;27;20053;-81
2020/12/01 04:18:45;;;;;;;30.80;14.60;;;;;;;-0.57;91.78;98927.28;5154768;27;20049;-81
2020/12/01 04:21:12;;;;;;;34.73;14.93;;;;;;;-0.70;92.10;98905.19;5145138;27;20051;-81
2020/12/01 04:23:38;;;;;;;30.07;13.50;;;;;;;-0.72;91.86;98894.63;5146691;27;20043;-81
2020/12/01 04:26:05;;;;;;;45.80;16.17;;;;;;;-0.48;91.90;98923.03;5147783;27;20043;-82
2020/12/01 04:28:31;;;;;;;36.47;15.07;;;;;;;-0.53;92.26;98927.88;5133334;27;20051;-81
2020/12/01 04:30:58;;;;;;;40.90;15.03;;;;;;;-0.48;92.05;98925.72;5133448;27;20123;-81
2020/12/01 04:33:24;;;;;;;34.40;14.17;;;;;;;-0.58;91.75;98922.06;5133311;27;20043;-81
2020/12/01 04:35:50;;;;;;;44.43;16.43;;;;;;;-0.59;92.04;98925.69;5133317;27;20380;-82
2020/12/01 04:38:17;;;;;;;38.03;15.50;;;;;;;-0.78;92.03;98887.09;5133314;27;20039;-81
2020/12/01 04:40:44;;;;;;;33.30;14.80;;;;;;;-0.66;92.09;98914.66;5133481;27;20051;-82
2020/12/01 04:43:16;;;;;;;39.03;14.20;;;;;;;-0.79;92.72;98896.06;5133107;27;20079;-81
2020/12/01 04:45:46;;;;;;;32.60;14.87;;;;;;;-0.68;92.47;98902.38;5132840;27;20043;-81
2020/12/01 04:48:18;;;;;;;35.78;15.57;;;;;;;-0.65;91.99;98886.13;5133826;27;20043;-81
2020/12/01 04:50:51;;;;;;;37.20;14.43;;;;;;;-0.68;92.09;98886.38;5132686;27;20679;-81
2020/12/01 04:53:45;;;;;;;34.83;15.13;;;;;;;-0.79;92.09;98882.72;5133122;27;20472;-80
2020/12/01 04:56:44;;;;;;;38.30;15.30;;;;;;;-0.52;92.41;98918.06;5132371;27;20388;-80
2020/12/01 04:59:41;;;;;;;38.90;13.47;;;;;;;-0.67;92.37;98899.59;5133234;27;20329;-81
2020/12/01 05:02:36;;;;;;;32.27;15.00;;;;;;;-0.57;92.66;98899.75;5131979;27;20035;-81
2020/12/01 05:05:24;;;;;;;29.97;13.10;;;;;;;-0.67;92.78;98893.41;5132473;27;20093;-80
2020/12/01 05:08:08;;;;;;;36.63;13.40;;;;;;;-0.64;92.72;98910.03;5136533;27;20098;-80
2020/12/01 05:10:35;;;;;;;30.67;12.67;;;;;;;-0.58;92.93;98909.56;5133333;27;20059;-81
2020/12/01 05:13:17;;;;;;;30.40;14.10;;;;;;;-0.67;92.67;98906.75;5136854;27;20478;-81
2020/12/01 05:15:49;;;;;;;31.80;12.97;;;;;;;-0.60;92.47;98906.16;5153462;27;20042;-81
2020/12/01 05:18:19;;;;;;;35.73;13.47;;;;;;;-0.81;93.14;98879.31;5152085;27;20070;-79
2020/12/01 05:20:48;;;;;;;32.37;12.93;;;;;;;-0.66;92.85;98900.44;5151115;27;20486;-82
2020/12/01 05:23:15;;;;;;;35.13;14.07;;;;;;;-0.72;92.99;98885.78;5133148;27;20043;-81
2020/12/01 05:25:42;;;;;;;33.43;13.63;;;;;;;-0.70;92.63;98897.16;5133467;27;20099;-81
2020/12/01 05:28:11;;;;;;;39.77;13.47;;;;;;;-0.66;93.15;98895.97;5155123;27;20095;-82
2020/12/01 05:30:38;;;;;;;34.55;14.25;;;;;;;-0.54;92.97;98897.66;5154769;27;20050;-82
2020/12/01 05:33:22;;;;;;;41.37;14.43;;;;;;;-0.63;92.69;98871.69;5152375;27;20043;-83
2020/12/01 05:36:04;;;;;;;31.90;13.27;;;;;;;-0.60;92.30;98878.63;5138128;27;20055;-83
2020/12/01 05:38:33;;;;;;;30.43;12.83;;;;;;;-0.63;92.85;98877.03;5133513;27;20051;-83
2020/12/01 05:41:15;;;;;;;31.23;11.83;;;;;;;-0.72;93.06;98875.09;5140991;27;20498;-83
2020/12/01 05:43:44;;;;;;;36.43;13.93;;;;;;;-0.70;93.00;98865.13;5152520;27;20043;-83
2020/12/01 05:46:17;;;;;;;34.35;13.27;;;;;;;-0.64;92.89;98853.13;5133198;27;20043;-84
2020/12/01 05:49:01;;;;;;;33.33;13.93;;;;;;;-0.68;92.43;98862.34;5133316;27;20050;-84
2020/12/01 05:51:35;;;;;;;29.63;13.67;;;;;;;-0.62;92.66;98886.72;5145794;27;20055;-84
2020/12/01 05:54:02;;;;;;;34.67;14.53;;;;;;;-0.60;92.71;98891.97;5133226;27;20091;-84
2020/12/01 05:56:28;;;;;;;41.47;15.30;;;;;;;-0.50;93.27;98898.25;5142412;27;20054;-84
2020/12/01 05:58:59;;;;;;;33.70;14.53;;;;;;;-0.59;92.91;98885.63;5115337;28;20055;-84
2020/12/01 06:01:26;;;;;;;36.73;14.03;;;;;;;-0.51;92.68;98885.03;5139401;27;20058;-84
2020/12/01 06:04:07;;;;;;;34.63;14.10;;;;;;;-0.36;92.01;98889.19;5143163;27;20058;-83
2020/12/01 06:06:46;;;;;;;43.73;15.13;;;;;;;-0.39;91.99;98870.72;5133536;27;20483;-84
2020/12/01 06:09:19;;;;;;;37.13;14.83;;;;;;;-0.46;92.14;98888.22;5133672;27;20047;-84
2020/12/01 06:11:50;;;;;;;38.50;14.23;;;;;;;-0.46;92.32;98886.38;5134228;27;20058;-85
2020/12/01 06:14:24;;;;;;;43.23;17.50;;;;;;;-0.51;92.17;98890.38;5132998;27;20070;-85
2020/12/01 06:16:55;;;;;;;31.53;13.53;;;;;;;-0.66;92.69;98874.59;5143050;27;20046;-84
2020/12/01 06:19:29;;;;;;;39.93;14.57;;;;;;;-0.55;92.77;98871.91;5135824;27;20046;-85
2020/12/01 06:22:19;;;;;;;36.53;13.90;;;;;;;-0.51;92.70;98885.91;5133123;27;20074;-85
2020/12/01 06:25:14;;;;;;;;;;;;;;;-0.50;92.80;98890.25;5132828;27;20050;-85
2020/12/01 06:28:06;;;;;;;40.07;13.47;;;;;;;-0.53;93.00;98887.81;5132869;27;20428;-85
2020/12/01 06:31:09;;;;;;;39.17;14.20;;;;;;;-0.55;92.86;98882.59;5115555;27;20092;-85
2020/12/01 06:34:02;;;;;;;37.43;14.07;;;;;;;-0.51;92.82;98893.91;5132556;27;20047;-85
2020/12/01 06:37:05;;;;;;;33.03;13.20;;;;;;;-0.49;93.41;98889.28;5131919;27;20047;-84
2020/12/01 06:39:45;;;;;;;38.83;14.50;;;;;;;-0.37;92.31;98884.78;5133018;27;20076;-84
2020/12/01 06:42:16;;;;;;;45.08;16.17;;;;;;;-0.34;92.46;98886.38;5115859;27;20108;-84
2020/12/01 06:44:45;;;;;;;39.13;15.00;;;;;;;-0.51;92.44;98875.22;5148768;27;20043;-84
2020/12/01 06:47:12;;;;;;;38.93;15.53;;;;;;;-0.46;92.34;98864.16;5142069;27;20050;-84
2020/12/01 06:49:40;;;;;;;43.83;16.30;;;;;;;-0.39;92.31;98879.59;5132497;27;20055;-84
2020/12/01 06:52:13;;;;;;;41.20;14.77;;;;;;;-0.37;92.19;98887.47;5132652;27;20050;-83
2020/12/01 06:54:50;;;;;;;37.10;14.73;;;;;;;-0.51;92.13;98871.69;5132156;27;20043;-83
2020/12/01 06:57:38;;;;;;;45.07;15.13;;;;;;;-0.43;92.28;98880.78;5151995;27;20047;-83
2020/12/01 07:00:05;;;;;;;46.57;16.83;;;;;;;-0.49;92.42;98875.09;5127958;27;20047;-83
2020/12/01 07:02:34;;;;;;;45.67;15.60;;;;;;;-0.37;92.38;98901.66;5131190;28;20483;-83
2020/12/01 07:05:25;;;;;;;52.13;16.30;;;;;;;-0.42;92.07;98881.63;5131442;27;20043;-83
2020/12/01 07:07:56;;;;;;;36.40;13.83;;;;;;;-0.34;92.21;98891.72;5146122;27;20043;-82
2020/12/01 07:10:28;;;;;;;48.10;15.67;;;;;;;-0.52;92.10;98862.00;5149874;27;20070;-79
2020/12/01 07:13:03;;;;;;;42.90;16.30;;;;;;;-0.45;92.17;98880.06;5134915;27;20558;-81
2020/12/01 07:15:38;;;;;;;47.13;14.93;;;;;;;-0.56;92.65;98867.56;5144323;27;20055;-81
2020/12/01 07:18:11;;;;;;;41.50;15.70;;;;;;;-0.46;92.81;98881.03;5134513;27;20059;-80
2020/12/01 07:20:42;;;;;;;39.53;13.53;;;;;;;-0.44;92.66;98895.09;5135313;27;20046;-81
2020/12/01 07:23:25;;;;;;;39.47;13.43;;;;;;;-0.50;92.78;98884.06;5137574;27;20074;-80
2020/12/01 07:26:00;;;;;;;41.17;14.80;;;;;;;-0.62;92.81;98860.03;5140696;27;20054;-80
2020/12/01 07:28:35;;;;;;;40.23;14.27;;;;;;;-0.38;92.98;98878.63;5137099;27;20499;-80
2020/12/01 07:31:04;;;;;;;36.20;14.33;;;;;;;-0.40;92.80;98863.69;5141665;27;20051;-80
2020/12/01 07:33:33;;;;;;;41.00;15.90;;;;;;;-0.23;91.76;98867.66;5143807;27;20106;-80
2020/12/01 07:36:13;;;;;;;38.30;15.05;;;;;;;-0.48;92.31;98868.75;5153269;27;20303;-80
2020/12/01 07:38:43;;;;;;;37.83;15.67;;;;;;;-0.58;92.35;98869.50;5139182;27;20047;-80
2020/12/01 07:41:23;;;;;;;42.80;14.45;;;;;;;-0.55;92.98;98885.28;5143883;27;20090;-80
2020/12/01 07:44:00;;;;;;;37.42;15.15;;;;;;;-0.31;92.90;98881.63;5135405;27;20546;-80
2020/12/01 07:46:27;;;;;;;32.43;14.97;;;;;;;-0.44;92.49;98881.75;5134907;27;20049;-80
2020/12/01 07:48:58;;;;;;;33.07;13.77;;;;;;;-0.47;92.54;98873.97;5135370;27;20055;-80
2020/12/01 07:51:26;;;;;;;35.20;13.13;;;;;;;-0.60;92.89;98870.63;5134374;27;20537;-80
2020/12/01 07:53:53;;;;;;;33.10;14.23;;;;;;;-0.52;93.03;98884.19;5134554;27;20068;-80
2020/12/01 07:56:23;;;;;;;33.57;13.87;;;;;;;-0.44;92.64;98902.28;5134490;27;20096;-80
2020/12/01 07:59:11;;;;;;;44.15;14.15;;;;;;;-0.56;92.80;98880.94;5134656;27;20039;-80
2020/12/01 08:01:37;;;;;;;31.83;12.70;;;;;;;-0.46;93.04;98894.38;5148046;27;20053;-80
2020/12/01 08:04:06;;;;;;;37.87;15.00;;;;;;;-0.40;92.83;98901.91;5155376;27;20047;-79
2020/12/01 08:06:32;;;;;;;29.57;12.03;;;;;;;-0.37;93.19;98901.66;5139960;27;20065;-80
2020/12/01 08:08:58;;;;;;;31.33;12.53;;;;;;;-0.35;93.45;98906.88;5135777;27;20047;-80
2020/12/01 08:11:25;;;;;;;34.07;13.40;;;;;;;-0.32;93.12;98897.78;5136297;27;20545;-80
2020/12/01 08:13:53;;;;;;;31.67;11.97;;;;;;;-0.28;92.79;98904.59;5134185;27;20043;-80
2020/12/01 08:16:23;;;;;;;32.83;12.73;;;;;;;-0.36;92.78;98879.34;5143332;27;20542;-80
2020/12/01 08:18:51;;;;;;;31.38;12.60;;;;;;;-0.20;92.19;98889.66;5135737;27;20077;-80
2020/12/01 08:21:21;;;;;;;31.83;12.90;;;;;;;-0.09;91.98;98909.28;5140556;27;20104;-80
2020/12/01 08:23:52;;;;;;;31.63;12.07;;;;;;;-0.17;92.46;98903.72;5134291;27;20073;-80
2020/12/01 08:26:22;;;;;;;27.43;12.30;;;;;;;-0.10;91.84;98894.25;5132487;27;20043;-80
2020/12/01 08:28:58;;;;;;;28.40;12.25;;;;;;;-0.26;92.15;98905.31;5133828;27;20043;-80
2020/12/01 08:31:34;;;;;;;31.70;12.50;;;;;;;-0.36;92.66;98875.81;5133224;27;20522;-80
2020/12/01 08:34:10;;;;;;;25.97;12.57;;;;;;;-0.25;92.45;98896.34;5133627;27;20080;-80
2020/12/01 08:36:59;;;;;;;30.87;11.73;;;;;;;-0.26;92.03;98895.47;5141775;27;20503;-80
2020/12/01 08:39:35;;;;;;;24.80;11.37;;;;;;;-0.26;92.09;98886.59;5133988;27;20050;-81
2020/12/01 08:42:16;;;;;;;27.03;12.60;;;;;;;-0.18;92.79;98892.19;5138285;27;20051;-81
2020/12/01 08:44:53;;;;;;;31.57;12.83;;;;;;;-0.15;92.33;98872.38;5146300;27;20107;-81
2020/12/01 08:47:22;;;;;;;29.30;13.23;;;;;;;-0.12;92.07;98880.16;5137970;27;20190;-81
2020/12/01 08:49:51;;;;;;;41.70;16.70;;;;;;;0.11;91.96;98892.50;5133350;27;20051;-81
2020/12/01 08:52:41;;;;;;;69.87;20.93;;;;;;;0.31;91.18;98906.06;5143770;27;20087;-86
2020/12/01 08:55:33;;;;;;;74.43;19.77;;;;;;;0.32;91.01;98899.75;5129129;27;20039;-84
2020/12/01 08:58:11;;;;;;;52.97;16.37;;;;;;;0.21;90.53;98892.63;5122458;27;20047;-85
2020/12/01 09:00:37;;;;;;;50.60;15.30;;;;;;;0.32;91.02;98902.44;5135273;27;20055;-85
2020/12/01 09:03:10;;;;;;;43.70;14.40;;;;;;;0.24;90.94;98887.00;5134406;27;20301;-85
2020/12/01 09:05:46;;;;;;;46.37;16.50;;;;;;;0.33;90.79;98907.66;5134897;27;20047;-86
2020/12/01 09:11:08;;;;;;;31.20;14.57;;;;;;;0.28;90.44;98907.16;5134740;27;20125;-85
2020/12/01 09:13:38;;;;;;;53.97;21.67;;;;;;;0.34;90.70;98916.50;5134815;27;20051;-85
2020/12/01 09:16:21;;;;;;;38.33;15.15;;;;;;;0.31;90.76;98916.75;5134139;27;20047;-85
2020/12/01 09:19:12;;;;;;;28.53;13.77;;;;;;;0.31;90.44;98906.91;5155391;27;20043;-83
2020/12/01 09:24:28;;;;;;;27.60;11.93;;;;;;;0.45;90.00;98902.25;5140804;27;20058;-85
2020/12/01 09:26:59;;;;;;;24.37;11.40;;;;;;;0.49;89.93;98911.72;5134579;27;20063;-85
2020/12/01 09:29:26;;;;;;;24.17;12.03;;;;;;;0.57;89.94;98921.78;5134642;27;20112;-89
2020/12/01 09:31:52;;;;;;;26.57;10.97;;;;;;;0.44;89.78;98911.25;5134997;27;20096;-85
2020/12/01 09:34:20;;;;;;;22.73;10.80;;;;;;;0.55;90.03;98929.09;5134669;27;20043;-85
2020/12/01 09:36:47;;;;;;;20.00;11.10;;;;;;;0.33;89.90;98904.97;5133838;27;20056;-86
2020/12/01 09:39:14;;;;;;;24.70;11.80;;;;;;;0.30;90.75;98909.69;5135228;27;20047;-87
2020/12/01 09:41:47;;;;;;;24.87;10.83;;;;;;;0.47;90.89;98925.22;5135361;27;20062;-87
2020/12/01 09:44:30;;;;;;;28.50;10.93;;;;;;;0.49;91.27;98930.44;5141978;27;20043;-87
2020/12/01 09:47:01;;;;;;;23.20;11.07;;;;;;;0.49;90.60;98930.44;5137562;27;20518;-88
2020/12/01 09:49:29;;;;;;;23.17;10.33;;;;;;;0.45;90.30;98916.50;5135181;27;20147;-88
2020/12/01 09:51:59;;;;;;;21.63;12.33;;;;;;;0.59;90.21;98923.34;5147998;27;20078;-88
2020/12/01 09:54:33;;;;;;;22.90;10.50;;;;;;;0.68;90.10;98922.59;5151249;27;20405;-88
2020/12/01 09:57:04;;;;;;;20.43;10.57;;;;;;;0.61;89.65;98900.00;5135398;27;20049;-87
2020/12/01 09:59:41;;;;;;;22.00;10.27;;;;;;;0.62;89.82;98898.19;5152038;27;20051;-87
2020/12/01 10:13:27;;;;;;;16.30;8.73;;;;;;;0.45;89.49;98897.75;5117227;28;20402;-87
2020/12/01 10:19:09;;;;;;;19.03;8.40;;;;;;;0.43;89.48;98905.03;5153963;27;20418;-88
2020/12/01 10:35:27;;;;;;;15.60;8.05;;;;;;;0.92;88.33;98939.38;5152039;27;20049;-88
2020/12/01 10:37:57;;;;;;;16.03;8.13;;;;;;;0.89;88.13;98932.50;5153751;27;20104;-88
2020/12/01 10:40:25;;;;;;;15.57;8.97;;;;;;;0.91;88.27;98921.66;5151355;27;20046;-88
2020/12/01 10:42:51;;;;;;;20.47;9.50;;;;;;;1.05;88.40;98932.03;5154087;27;20050;-88
2020/12/01 10:45:19;;;;;;;18.47;8.33;;;;;;;0.93;87.80;98920.53;5153702;27;20494;-88
2020/12/01 10:47:46;;;;;;;17.80;8.90;;;;;;;0.92;88.12;98909.94;5139441;27;20100;-89
2020/12/01 10:50:14;;;;;;;19.83;8.63;;;;;;;1.11;87.93;98933.34;5136899;27;20055;-89
2020/12/01 10:52:40;;;;;;;16.17;8.20;;;;;;;0.90;87.17;98891.34;5137374;27;20471;-89
2020/12/01 10:55:08;;;;;;;15.23;7.95;;;;;;;0.85;88.16;98920.34;5136717;27;20051;-90
2020/12/01 10:57:35;;;;;;;15.70;7.47;;;;;;;0.91;88.02;98902.91;5137707;27;20367;-90
2020/12/01 11:00:03;;;;;;;13.52;7.47;;;;;;;1.08;88.13;98922.88;5157019;27;20471;-90
2020/12/01 11:02:30;;;;;;;17.60;8.40;;;;;;;0.98;88.15;98904.94;5158216;27;20047;-90
2020/12/01 11:04:57;;;;;;;14.87;7.73;;;;;;;1.12;87.52;98918.97;5143416;27;20059;-90
2020/12/01 11:07:23;;;;;;;11.80;6.73;;;;;;;1.01;87.54;98907.34;5136955;27;20066;-91
2020/12/01 11:09:50;;;;;;;17.80;7.53;;;;;;;1.04;87.59;98925.84;5144492;27;20062;-90
2020/12/01 11:12:17;;;;;;;18.33;7.88;;;;;;;0.97;87.88;98931.84;5157658;27;20059;-91
2020/12/01 11:14:44;;;;;;;14.93;7.23;;;;;;;0.85;87.82;98937.22;5155958;27;20043;-91
2020/12/01 11:17:10;;;;;;;15.03;8.27;;;;;;;0.75;88.05;98928.25;5136294;27;20055;-91
2020/12/01 11:19:38;;;;;;;12.20;6.90;;;;;;;0.70;88.66;98917.13;5136647;27;20055;-91
2020/12/01 11:22:04;;;;;;;16.20;8.80;;;;;;;0.85;88.84;98936.38;5139666;27;20047;-92
2020/12/01 11:24:30;;;;;;;14.15;7.78;;;;;;;0.79;88.68;98919.00;5136467;27;20100;-91
2020/12/01 11:26:57;;;;;;;14.65;8.02;;;;;;;0.88;88.21;98928.94;5149952;27;20050;-91
2020/12/01 11:29:24;;;;;;;16.35;8.77;;;;;;;0.84;87.75;98923.97;5157112;27;20061;-91
2020/12/01 11:31:51;;;;;;;17.27;8.57;;;;;;;0.82;88.29;98942.84;5140600;27;20414;-91
2020/12/01 11:34:17;;;;;;;18.03;9.13;;;;;;;0.70;88.25;98925.13;5136512;27;20086;-91
2020/12/01 11:36:44;;;;;;;15.85;8.45;;;;;;;0.78;88.57;98936.03;5137450;27;20051;-91
2020/12/01 11:39:13;;;;;;;15.82;7.93;;;;;;;0.84;88.75;98945.38;5135821;27;20069;-91
2020/12/01 11:41:40;;;;;;;15.07;8.00;;;;;;;0.73;88.08;98910.66;5136299;27;20051;-91
2020/12/01 11:44:07;;;;;;;16.93;8.07;;;;;;;0.83;88.39;98912.44;5155221;27;20054;-90
2020/12/01 11:46:35;;;;;;;17.07;8.50;;;;;;;0.80;88.53;98911.81;5156300;27;20046;-91
2020/12/01 11:49:01;;;;;;;16.07;7.67;;;;;;;0.76;88.80;98910.41;5136094;27;20055;-90
2020/12/01 11:51:28;;;;;;;17.48;9.02;;;;;;;0.93;88.52;98925.88;5136156;27;20404;-90
2020/12/01 11:53:55;;;;;;;15.27;9.20;;;;;;;1.08;87.85;98933.59;5146689;27;20076;-90
2020/12/01 11:56:21;;;;;;;17.27;8.70;;;;;;;1.16;87.87;98940.00;5156485;27;20046;-90
2020/12/01 11:58:48;;;;;;;14.13;7.90;;;;;;;1.14;87.42;98941.09;5150629;27;20047;-90
2020/12/01 12:01:15;;;;;;;16.67;9.63;;;;;;;1.13;87.44;98926.88;5135609;27;20057;-91
2020/12/01 12:03:42;;;;;;;18.10;8.37;;;;;;;1.14;87.93;98933.91;5156228;27;20054;-91
2020/12/01 12:06:09;;;;;;;16.90;8.77;;;;;;;0.97;88.22;98929.16;5152504;27;20058;-90
2020/12/01 12:08:36;;;;;;;18.10;8.55;;;;;;;0.93;88.71;98923.19;5157040;27;20059;-91
2020/12/01 12:11:03;;;;;;;15.95;8.48;;;;;;;0.97;88.39;98947.91;5141422;27;20051;-91